Flight Track Log - Related Links

Times and Time Zones

All times are in EDT time to prevent confusion due to time zone crossing. See the SWA923 flight status page for this flight to view local times or setup timezone preferences in your user account.

Time Position Orientation Groundspeed Altitude Reporting Facility
EDT Latitude Longitude Course Direction KTS MPH feet Rate Location/Type
Mon 11:51:07 AM 37.7167 -122.2500 310° West 149 171 1,600  Level Northern Cal TRACON
Mon 11:52:01 AM 37.7500 -122.3000 310° West 204 235 3,500 3,211 Climbing Northern Cal TRACON
Mon 11:53:01 AM 37.7500 -122.3667 270° West 222 255 7,700 3,890 Climbing Northern Cal TRACON
Mon 11:53:32 AM 37.7450 -122.3983 259° West 217 250 9,400 2,870 Climbing Oakland Center
Mon 11:54:33 AM 37.6836 -122.4197 195° South 239 275 12,100 2,537 Climbing Oakland Center
Mon 11:55:35 AM 37.5986 -122.4372 189° South 312 359 14,600 2,758 Climbing Oakland Center
Mon 11:56:37 AM 37.5019 -122.4581 190° South 347 399 17,800 3,317 Climbing Oakland Center
Mon 11:57:38 AM 37.3794 -122.4847 190° South 371 427 21,400 3,073 Climbing Oakland Center
Mon 11:58:40 AM 37.2722 -122.5083 190° South 385 443 24,100 2,585 Climbing Oakland Center
Mon 11:59:41 AM 37.1608 -122.5314 189° South 399 459 26,700 2,341 Climbing Oakland Center
Mon 12:00:43 PM 37.0453 -122.5528 188° South 417 480 28,900 2,000 Climbing Oakland Center
Mon 12:01:44 PM 36.9244 -122.5628 184° South 449 517 30,800 2,146 Climbing Oakland Center
Mon 12:02:46 PM 36.8050 -122.5319 168° South 442 509 33,300 2,274 Climbing Oakland Center
Mon 12:03:48 PM 36.6883 -122.4997 168° South 430 495 35,500 1,659 Climbing Oakland Center
Mon 12:04:49 PM 36.5492 -122.4658 169° South 424 488 36,700 1,463 Climbing Oakland Center
Mon 12:05:51 PM 36.4361 -122.4314 166° South 420 483 38,500 1,610 Climbing Oakland Center
Mon 12:06:52 PM 36.3497 -122.3256 135° Southeast 445 512 40,000 1,220 Climbing Oakland Center
Mon 12:07:54 PM 36.2717 -122.2108 130° Southeast 440 506 41,000 537 Climbing Oakland Center
Mon 12:08:55 PM 36.1925 -122.0936 130° Southeast 444 511 41,100 49 Climbing Oakland Center
Mon 12:09:57 PM 36.1144 -121.9808 131° Southeast 437 503 41,100  Level Oakland Center
Mon 12:10:58 PM 36.0361 -121.8692 131° Southeast 435 501 41,100  Level Oakland Center
Mon 12:12:00 PM 35.9456 -121.7417 131° Southeast 436 502 41,100  Level Oakland Center
Mon 12:13:01 PM 35.8678 -121.6289 130° Southeast 433 498 41,100  Level Oakland Center
Mon 12:14:03 PM 35.7889 -121.5153 131° Southeast 437 503 41,100  Level Oakland Center
Mon 12:15:04 PM 35.7092 -121.4031 131° Southeast 438 504 41,100  Level Oakland Center
Mon 12:16:06 PM 35.6300 -121.2922 131° Southeast 434 499 41,100  Level Oakland Center
Mon 12:17:07 PM 35.5514 -121.1800 131° Southeast 434 499 41,100  Level Oakland Center
Mon 12:18:09 PM 35.4608 -121.0453 130° Southeast 430 495 41,100  Level Oakland Center
Mon 12:19:10 PM 35.3933 -120.9214 124° Southeast 436 502 41,100  Level Oakland Center
Mon 12:20:12 PM 35.3239 -120.8000 125° Southeast 439 505 41,100  Level Oakland Center
Mon 12:21:13 PM 35.2542 -120.6800 125° Southeast 438 504 41,100  Level Oakland Center
Mon 12:22:14 PM 35.1858 -120.5592 125° Southeast 439 505 41,100  Level Oakland Center
Mon 12:23:16 PM 35.1172 -120.4383 125° Southeast 439 505 41,100  Level Oakland Center
Mon 12:24:17 PM 35.0358 -120.2947 125° Southeast 436 502 41,100  Level Oakland Center
Mon 12:25:19 PM 34.9675 -120.1750 125° Southeast 433 498 41,100  Level Oakland Center
Mon 12:26:20 PM 34.8986 -120.0572 125° Southeast 430 495 41,100  Level Oakland Center
Mon 12:27:21 PM 34.8306 -119.9378 125° Southeast 431 496 41,100  Level Oakland Center
Mon 12:28:23 PM 34.7611 -119.8217 126° Southeast 427 491 41,100  Level Oakland Center
Mon 12:29:24 PM 34.6919 -119.7044 126° Southeast 427 491 41,100 40 Level Oakland Center
Mon 12:30:54 PM 34.5847 -119.5203 125° Southeast 431 496 41,200 39 Climbing Los Angeles Center
Mon 12:31:57 PM 34.5142 -119.4019 126° Southeast 433 498 41,200  Level Los Angeles Center
Mon 12:32:59 PM 34.4428 -119.2828 126° Southeast 437 503 41,200  Level Los Angeles Center
Mon 12:34:01 PM 34.3575 -119.1389 126° Southeast 438 504 41,200  Level Los Angeles Center
Mon 12:35:03 PM 34.2853 -119.0192 126° Southeast 441 507 41,200  Level Los Angeles Center
Mon 12:36:05 PM 34.2131 -118.8964 125° Southeast 447 514 41,200  Level Los Angeles Center
Mon 12:37:07 PM 34.1397 -118.7753 126° Southeast 447 514 41,200 -48 Level Los Angeles Center
Mon 12:38:09 PM 34.0664 -118.6531 126° Southeast 449 517 41,100 -435 Descending Los Angeles Center
Mon 12:39:11 PM 33.9931 -118.5319 126° Southeast 447 514 40,300 -864 Descending Los Angeles Center
Mon 12:40:14 PM 33.9192 -118.4122 127° Southeast 445 512 39,300 -960 Descending Los Angeles Center
Mon 12:41:16 PM 33.8203 -118.2922 135° Southeast 460 529 38,300 -1,887 Descending Los Angeles Center
Mon 12:42:18 PM 33.7236 -118.1619 132° Southeast 454 522 35,400 -3,242 Descending Los Angeles Center
Mon 12:43:20 PM 33.6358 -118.0508 133° Southeast 452 520 31,600 -3,242 Descending Los Angeles Center
Mon 12:44:22 PM 33.5494 -117.9433 134° Southeast 449 517 28,700 -2,758 Descending Los Angeles Center
Mon 12:45:24 PM 33.4644 -117.8353 133° Southeast 446 513 25,900 -2,758 Descending Los Angeles Center
Mon 12:46:26 PM 33.3850 -117.7356 134° Southeast 415 478 23,000 -2,806 Descending Los Angeles Center
Mon 12:47:28 PM 33.3053 -117.6361 134° Southeast 414 476 20,100 -2,736 Descending Los Angeles Center
Mon 12:48:31 PM 33.2250 -117.5414 135° Southeast 410 472 17,300 -2,400 Descending Los Angeles Center
Mon 12:49:33 PM 33.1192 -117.4536 145° Southeast 389 448 15,100 -1,500 Descending Los Angeles Center
Mon 12:50:35 PM 33.0333 -117.3836 146° Southeast 381 438 14,200 -1,306 Descending Los Angeles Center
Mon 12:51:37 PM 32.9492 -117.3231 149° Southeast 366 421 12,400 -1,500 Descending Los Angeles Center
Mon 12:52:39 PM 32.8714 -117.2669 149° Southeast 346 398 11,100 -1,065 Descending Los Angeles Center
Mon 12:53:41 PM 32.8156 -117.2022 136° Southeast 311 358 10,200 -1,016 Descending Los Angeles Center
Mon 12:54:43 PM 32.7989 -117.0983 101° East 278 320 9,000 -968 Descending Los Angeles Center
Mon 12:55:45 PM 32.7861 -117.0200 101° East 260 299 8,200 -1,008 Descending Los Angeles Center
Mon 12:56:48 PM 32.7708 -116.9439 103° East 248 285 6,900 -1,248 Descending Los Angeles Center
Mon 12:57:50 PM 32.7081 -116.9417 178° South 249 287 5,600 -1,785 Descending Los Angeles Center
Mon 12:58:49 PM 32.7000 -117.0167 263° West 229 264 3,300 -1,916 Descending Southern California TRACON
Mon 12:59:49 PM 32.7167 -117.0833 287° West 200 230 1,800 -1,240 Descending Southern California TRACON
Mon 01:00:50 PM 32.7167 -117.1333 270° West 147 169 800 -785 Descending Southern California TRACON
Mon 01:01:59 PM 32.7300 -117.1822 288° West 136 157 100 -609 Descending Los Angeles Center
Mon 01:03:00 PM 32.7333 -117.1833 281° West  Level FlightAware Approximate
Mon 01:10:00 PM 32.7336 -117.1897 281° West  Level Estimated

Login

Don't have an account? Register now (free) for customized features, flight alerts, and more!